createdAt,value
2018-07-15T00:00:04.705Z,1028.24290054
2018-07-15T00:00:17.286Z,1028.24290054
2018-07-15T00:00:29.720Z,1028.24290054
2018-07-15T00:00:42.186Z,1028.24290054
2018-07-15T00:00:54.607Z,1028.24290054
2018-07-15T00:01:07.057Z,1028.17517278
2018-07-15T00:01:19.486Z,1028.17517278
2018-07-15T00:01:31.917Z,1028.17517278
2018-07-15T00:01:44.320Z,1028.17517278
2018-07-15T00:01:56.856Z,1028.17517278
2018-07-15T00:02:09.272Z,1028.34449219
2018-07-15T00:02:21.682Z,1028.34449219
2018-07-15T00:02:34.100Z,1028.34449219
2018-07-15T00:02:46.538Z,1028.34449219
2018-07-15T00:02:58.955Z,1028.20903666
2018-07-15T00:03:11.368Z,1028.20903666
2018-07-15T00:03:23.793Z,1028.20903666
2018-07-15T00:03:36.209Z,1028.20903666
2018-07-15T00:03:48.635Z,1028.20903666
2018-07-15T00:04:01.037Z,1028.17517278
2018-07-15T00:04:13.474Z,1028.17517278
2018-07-15T00:04:25.903Z,1028.17517278
2018-07-15T00:04:38.318Z,1028.17517278
2018-07-15T00:04:50.740Z,1028.17517278
2018-07-15T00:05:03.165Z,1028.1413089
2018-07-15T00:05:15.615Z,1028.1413089
2018-07-15T00:05:28.048Z,1028.1413089
2018-07-15T00:05:40.545Z,1028.1413089
2018-07-15T00:05:52.951Z,1028.1413089
2018-07-15T00:06:05.342Z,1028.1413089
2018-07-15T00:06:17.754Z,1028.1413089
2018-07-15T00:06:30.142Z,1028.1413089
2018-07-15T00:06:42.552Z,1028.1413089
2018-07-15T00:06:55.107Z,1028.1413089
2018-07-15T00:07:07.559Z,1028.10744502
2018-07-15T00:07:19.955Z,1028.10744502
2018-07-15T00:07:32.377Z,1028.10744502
2018-07-15T00:07:44.785Z,1028.10744502
2018-07-15T00:07:57.184Z,1028.10744502
2018-07-15T00:08:09.610Z,1028.17517278
2018-07-15T00:08:22.064Z,1028.17517278
2018-07-15T00:08:34.471Z,1028.17517278
2018-07-15T00:08:46.863Z,1028.17517278
2018-07-15T00:08:59.293Z,1028.10744502
2018-07-15T00:09:11.685Z,1028.10744502
2018-07-15T00:09:24.095Z,1028.10744502
2018-07-15T00:09:36.494Z,1028.10744502
2018-07-15T00:09:48.942Z,1028.10744502
2018-07-15T00:10:01.335Z,1028.10744502
2018-07-15T00:10:13.747Z,1028.10744502
2018-07-15T00:10:26.140Z,1028.10744502
2018-07-15T00:10:38.544Z,1028.10744502
2018-07-15T00:10:50.951Z,1028.10744502
2018-07-15T00:11:03.336Z,1028.10744502
2018-07-15T00:11:15.776Z,1028.10744502
2018-07-15T00:11:28.226Z,1028.10744502
2018-07-15T00:11:40.625Z,1028.10744502
2018-07-15T00:11:53.121Z,1028.10744502
2018-07-15T00:12:05.569Z,1028.07358114
2018-07-15T00:12:17.987Z,1028.07358114
2018-07-15T00:12:30.418Z,1028.07358114
2018-07-15T00:12:42.961Z,1028.07358114
2018-07-15T00:12:55.357Z,1028.07358114
2018-07-15T00:13:07.946Z,1028.03971725
2018-07-15T00:13:20.403Z,1028.03971725
2018-07-15T00:13:32.803Z,1028.03971725
2018-07-15T00:13:45.224Z,1028.03971725
2018-07-15T00:13:57.626Z,1028.03971725
2018-07-15T00:14:10.051Z,1028.00585337
2018-07-15T00:14:22.501Z,1028.00585337
2018-07-15T00:14:34.892Z,1028.00585337
2018-07-15T00:14:47.286Z,1028.00585337
2018-07-15T00:14:59.685Z,1028.1413089
2018-07-15T00:15:12.100Z,1028.1413089
2018-07-15T00:15:24.506Z,1028.1413089
2018-07-15T00:15:36.925Z,1028.1413089
2018-07-15T00:15:49.361Z,1028.1413089
2018-07-15T00:16:01.825Z,1028.10744502
2018-07-15T00:16:14.252Z,1028.10744502
2018-07-15T00:16:26.657Z,1028.10744502
2018-07-15T00:16:39.065Z,1028.10744502
2018-07-15T00:16:51.471Z,1028.10744502
2018-07-15T00:17:03.929Z,1028.1413089
2018-07-15T00:17:16.358Z,1028.1413089
2018-07-15T00:17:28.788Z,1028.1413089
2018-07-15T00:17:41.209Z,1028.1413089
2018-07-15T00:17:53.607Z,1028.1413089
2018-07-15T00:18:06.098Z,1028.17517278
2018-07-15T00:18:18.583Z,1028.17517278
2018-07-15T00:18:30.987Z,1028.17517278
2018-07-15T00:18:43.384Z,1028.17517278
2018-07-15T00:18:55.798Z,1028.17517278
2018-07-15T00:19:08.213Z,1028.17517278
2018-07-15T00:19:20.636Z,1028.17517278
2018-07-15T00:19:33.044Z,1028.17517278
2018-07-15T00:19:45.446Z,1028.17517278
2018-07-15T00:19:57.852Z,1028.17517278
2018-07-15T00:20:10.287Z,1028.03971725
2018-07-15T00:20:22.953Z,1028.03971725
2018-07-15T00:20:35.634Z,1028.03971725
2018-07-15T00:20:48.040Z,1028.03971725
2018-07-15T00:21:00.442Z,1028.1413089
2018-07-15T00:21:12.845Z,1028.1413089
2018-07-15T00:21:25.242Z,1028.1413089
2018-07-15T00:21:37.662Z,1028.1413089
2018-07-15T00:21:50.077Z,1028.1413089
2018-07-15T00:22:02.475Z,1028.1413089
2018-07-15T00:22:14.891Z,1028.1413089
2018-07-15T00:22:27.310Z,1028.1413089
2018-07-15T00:22:39.759Z,1028.1413089
2018-07-15T00:22:52.168Z,1028.1413089
2018-07-15T00:23:04.590Z,1028.1413089
2018-07-15T00:23:17.032Z,1028.1413089
2018-07-15T00:23:29.421Z,1028.1413089
2018-07-15T00:23:41.840Z,1028.1413089
2018-07-15T00:23:54.246Z,1028.1413089
2018-07-15T00:24:06.644Z,1028.17517278
2018-07-15T00:24:19.079Z,1028.17517278
2018-07-15T00:24:31.481Z,1028.17517278
2018-07-15T00:24:43.870Z,1028.17517278
2018-07-15T00:24:56.289Z,1028.17517278
2018-07-15T00:25:08.747Z,1028.1413089
2018-07-15T00:25:21.154Z,1028.1413089
2018-07-15T00:25:33.574Z,1028.1413089
2018-07-15T00:25:46.017Z,1028.1413089
2018-07-15T00:25:58.411Z,1028.10744502
2018-07-15T00:26:10.869Z,1028.10744502
2018-07-15T00:26:23.280Z,1028.10744502
2018-07-15T00:26:35.677Z,1028.10744502
2018-07-15T00:26:48.123Z,1028.10744502
2018-07-15T00:27:00.545Z,1028.1413089
2018-07-15T00:27:12.970Z,1028.1413089
2018-07-15T00:27:25.376Z,1028.1413089
2018-07-15T00:27:37.838Z,1028.1413089
2018-07-15T00:27:50.242Z,1028.1413089
2018-07-15T00:28:02.681Z,1028.17517278
2018-07-15T00:28:15.090Z,1028.17517278
2018-07-15T00:28:27.603Z,1028.17517278
2018-07-15T00:28:40.032Z,1028.17517278
2018-07-15T00:28:52.453Z,1028.17517278
2018-07-15T00:29:04.932Z,1028.1413089
2018-07-15T00:29:17.351Z,1028.1413089
2018-07-15T00:29:29.745Z,1028.1413089
2018-07-15T00:29:42.153Z,1028.1413089
2018-07-15T00:29:54.561Z,1028.1413089
2018-07-15T00:30:06.960Z,1028.1413089
2018-07-15T00:30:19.364Z,1028.1413089
2018-07-15T00:30:31.764Z,1028.1413089
2018-07-15T00:30:44.179Z,1028.1413089
2018-07-15T00:30:56.590Z,1028.1413089
2018-07-15T00:31:09.026Z,1028.17517278
2018-07-15T00:31:21.580Z,1028.17517278
2018-07-15T00:31:33.996Z,1028.17517278
2018-07-15T00:31:46.391Z,1028.17517278
2018-07-15T00:31:58.769Z,1028.17517278
2018-07-15T00:32:11.161Z,1028.17517278
2018-07-15T00:32:23.571Z,1028.17517278
2018-07-15T00:32:35.972Z,1028.17517278
2018-07-15T00:32:48.398Z,1028.17517278
2018-07-15T00:33:00.823Z,1028.1413089
2018-07-15T00:33:13.261Z,1028.1413089
2018-07-15T00:33:25.674Z,1028.1413089
2018-07-15T00:33:38.070Z,1028.1413089
2018-07-15T00:33:50.463Z,1028.1413089
2018-07-15T00:34:02.863Z,1028.00585337
2018-07-15T00:34:15.291Z,1028.00585337
2018-07-15T00:34:27.720Z,1028.00585337
2018-07-15T00:34:40.195Z,1028.00585337
2018-07-15T00:34:52.590Z,1028.00585337
2018-07-15T00:35:05.000Z,1028.10744502
2018-07-15T00:35:17.404Z,1028.10744502
2018-07-15T00:35:29.810Z,1028.10744502
2018-07-15T00:35:42.200Z,1028.10744502
2018-07-15T00:35:54.604Z,1028.10744502
2018-07-15T00:36:07.007Z,1028.10744502
2018-07-15T00:36:19.447Z,1028.10744502
2018-07-15T00:36:31.871Z,1028.10744502
2018-07-15T00:36:44.290Z,1028.10744502
2018-07-15T00:36:56.683Z,1028.10744502
2018-07-15T00:37:09.090Z,1028.07358114
2018-07-15T00:37:21.511Z,1028.07358114
2018-07-15T00:37:33.900Z,1028.07358114
2018-07-15T00:37:46.318Z,1028.07358114
2018-07-15T00:37:58.727Z,1028.10744502
2018-07-15T00:38:11.128Z,1028.10744502
2018-07-15T00:38:23.534Z,1028.10744502
2018-07-15T00:38:35.995Z,1028.10744502
2018-07-15T00:38:48.429Z,1028.10744502
2018-07-15T00:39:00.860Z,1028.07358114
2018-07-15T00:39:13.244Z,1028.07358114
2018-07-15T00:39:25.665Z,1028.07358114
2018-07-15T00:39:38.054Z,1028.07358114
2018-07-15T00:39:50.462Z,1028.07358114
2018-07-15T00:40:02.899Z,1028.03971725
2018-07-15T00:40:15.341Z,1028.03971725
2018-07-15T00:40:27.735Z,1028.03971725
2018-07-15T00:40:40.139Z,1028.03971725
2018-07-15T00:40:52.571Z,1028.03971725
2018-07-15T00:41:04.954Z,1028.03971725
2018-07-15T00:41:17.427Z,1028.03971725
2018-07-15T00:41:29.848Z,1028.03971725
2018-07-15T00:41:42.235Z,1028.03971725
2018-07-15T00:41:54.621Z,1028.03971725
2018-07-15T00:42:07.041Z,1028.10744502
2018-07-15T00:42:19.452Z,1028.10744502
2018-07-15T00:42:31.850Z,1028.10744502
2018-07-15T00:42:44.257Z,1028.10744502
2018-07-15T00:42:56.662Z,1028.10744502
2018-07-15T00:43:09.129Z,1028.1413089
2018-07-15T00:43:21.531Z,1028.1413089
2018-07-15T00:43:33.952Z,1028.1413089
2018-07-15T00:43:46.378Z,1028.1413089
2018-07-15T00:43:58.791Z,1028.07358114
2018-07-15T00:44:11.201Z,1028.07358114
2018-07-15T00:44:23.602Z,1028.07358114
2018-07-15T00:44:36.019Z,1028.07358114
2018-07-15T00:44:48.436Z,1028.07358114
2018-07-15T00:45:00.972Z,1028.10744502
2018-07-15T00:45:13.407Z,1028.10744502
2018-07-15T00:45:25.819Z,1028.10744502
2018-07-15T00:45:38.246Z,1028.10744502
2018-07-15T00:45:50.632Z,1028.10744502
2018-07-15T00:46:03.026Z,1028.03971725
2018-07-15T00:46:15.445Z,1028.03971725
2018-07-15T00:46:27.903Z,1028.03971725
2018-07-15T00:46:40.314Z,1028.03971725
2018-07-15T00:46:52.734Z,1028.03971725
2018-07-15T00:47:05.156Z,1028.17517278
2018-07-15T00:47:17.568Z,1028.17517278
2018-07-15T00:47:29.954Z,1028.17517278
2018-07-15T00:47:42.335Z,1028.17517278
2018-07-15T00:47:54.753Z,1028.17517278
2018-07-15T00:48:07.154Z,1028.07358114
2018-07-15T00:48:19.580Z,1028.07358114
2018-07-15T00:48:31.978Z,1028.07358114
2018-07-15T00:48:44.708Z,1028.07358114
2018-07-15T00:48:57.105Z,1028.07358114
2018-07-15T00:49:09.520Z,1028.03971725
2018-07-15T00:49:21.916Z,1028.03971725
2018-07-15T00:49:34.375Z,1028.03971725
2018-07-15T00:49:46.775Z,1028.03971725
2018-07-15T00:49:59.166Z,1028.00585337
2018-07-15T00:50:11.615Z,1028.00585337
2018-07-15T00:50:24.008Z,1028.00585337
2018-07-15T00:50:36.415Z,1028.00585337
2018-07-15T00:50:48.819Z,1028.00585337
2018-07-15T00:51:01.240Z,1028.00585337
2018-07-15T00:51:13.649Z,1028.00585337
2018-07-15T00:51:26.050Z,1028.00585337
2018-07-15T00:51:38.435Z,1028.00585337
2018-07-15T00:51:50.898Z,1028.00585337
2018-07-15T00:52:03.329Z,1028.00585337
2018-07-15T00:52:15.831Z,1028.00585337
2018-07-15T00:52:28.236Z,1028.00585337
2018-07-15T00:52:40.632Z,1028.00585337
2018-07-15T00:52:53.043Z,1028.00585337
2018-07-15T00:53:05.568Z,1028.07358114
2018-07-15T00:53:18.024Z,1028.07358114
2018-07-15T00:53:30.428Z,1028.07358114
2018-07-15T00:53:42.874Z,1028.07358114
2018-07-15T00:53:55.274Z,1028.07358114
2018-07-15T00:54:07.670Z,1028.07358114
2018-07-15T00:54:20.081Z,1028.07358114
2018-07-15T00:54:32.491Z,1028.07358114
2018-07-15T00:54:44.878Z,1028.07358114
2018-07-15T00:54:57.268Z,1028.07358114
2018-07-15T00:55:09.844Z,1028.03971725
2018-07-15T00:55:23.119Z,1028.03971725
2018-07-15T00:55:35.770Z,1028.03971725
2018-07-15T00:55:48.178Z,1028.03971725
2018-07-15T00:56:00.585Z,1028.10744502
2018-07-15T00:56:13.018Z,1028.10744502
2018-07-15T00:56:25.643Z,1028.10744502
2018-07-15T00:56:38.037Z,1028.10744502
2018-07-15T00:56:50.432Z,1028.10744502
2018-07-15T00:57:02.842Z,1028.00585337
2018-07-15T00:57:15.322Z,1028.00585337
2018-07-15T00:57:27.716Z,1028.00585337
2018-07-15T00:57:40.168Z,1028.00585337
2018-07-15T00:57:52.579Z,1028.00585337
2018-07-15T00:58:04.996Z,1028.07358114
2018-07-15T00:58:17.452Z,1028.07358114
2018-07-15T00:58:29.853Z,1028.07358114
2018-07-15T00:58:42.269Z,1028.07358114
2018-07-15T00:58:54.681Z,1028.07358114
2018-07-15T00:59:07.077Z,1028.07358114
2018-07-15T00:59:19.503Z,1028.07358114
2018-07-15T00:59:32.028Z,1028.07358114
2018-07-15T00:59:44.437Z,1028.07358114
2018-07-15T00:59:56.851Z,1028.07358114
2018-07-15T01:00:09.356Z,1028.00585337
2018-07-15T01:00:21.966Z,1028.00585337
2018-07-15T01:00:34.407Z,1028.00585337
2018-07-15T01:00:46.862Z,1028.00585337
2018-07-15T01:00:59.298Z,1028.07358114
2018-07-15T01:01:11.739Z,1028.07358114
2018-07-15T01:01:24.187Z,1028.07358114
2018-07-15T01:01:36.595Z,1028.07358114
2018-07-15T01:01:49.306Z,1028.07358114
2018-07-15T01:02:01.712Z,1028.10744502
2018-07-15T01:02:14.124Z,1028.10744502
2018-07-15T01:02:26.598Z,1028.10744502
2018-07-15T01:02:39.010Z,1028.10744502
2018-07-15T01:02:51.470Z,1028.10744502
2018-07-15T01:03:03.910Z,1028.07358114
2018-07-15T01:03:16.341Z,1028.07358114
2018-07-15T01:03:28.735Z,1028.07358114
2018-07-15T01:03:41.144Z,1028.07358114
2018-07-15T01:03:53.616Z,1028.07358114
2018-07-15T01:04:06.028Z,1028.07358114
2018-07-15T01:04:18.450Z,1028.07358114
2018-07-15T01:04:30.861Z,1028.07358114
2018-07-15T01:04:43.270Z,1028.07358114
2018-07-15T01:04:55.736Z,1028.07358114
2018-07-15T01:05:08.177Z,1028.07358114
2018-07-15T01:05:20.580Z,1028.07358114
2018-07-15T01:05:32.981Z,1028.07358114
2018-07-15T01:05:45.393Z,1028.07358114
2018-07-15T01:05:57.814Z,1028.07358114
2018-07-15T01:06:10.253Z,1028.07358114
2018-07-15T01:06:22.663Z,1028.07358114
2018-07-15T01:06:35.075Z,1028.07358114
2018-07-15T01:06:47.496Z,1028.07358114
2018-07-15T01:06:59.973Z,1028.07358114
2018-07-15T01:07:12.411Z,1028.07358114
2018-07-15T01:07:24.835Z,1028.07358114
2018-07-15T01:07:37.237Z,1028.07358114
2018-07-15T01:07:49.636Z,1028.07358114
2018-07-15T01:08:02.072Z,1028.03971725
2018-07-15T01:08:14.492Z,1028.03971725
2018-07-15T01:08:26.911Z,1028.03971725
2018-07-15T01:08:39.326Z,1028.03971725
2018-07-15T01:08:51.745Z,1028.03971725
2018-07-15T01:09:04.180Z,1028.10744502
2018-07-15T01:09:16.585Z,1028.10744502
2018-07-15T01:09:29.001Z,1028.10744502
2018-07-15T01:09:41.413Z,1028.10744502
2018-07-15T01:09:53.816Z,1028.10744502
2018-07-15T01:10:06.205Z,1028.03971725
2018-07-15T01:10:18.647Z,1028.03971725
2018-07-15T01:10:31.094Z,1028.03971725
2018-07-15T01:10:43.499Z,1028.03971725
2018-07-15T01:10:55.890Z,1028.03971725
2018-07-15T01:11:08.301Z,1028.03971725
2018-07-15T01:11:20.723Z,1028.03971725
2018-07-15T01:11:33.107Z,1028.03971725
2018-07-15T01:11:45.509Z,1028.03971725
2018-07-15T01:11:57.944Z,1028.03971725
2018-07-15T01:12:10.357Z,1028.07358114
2018-07-15T01:12:22.757Z,1028.07358114
2018-07-15T01:12:35.154Z,1028.07358114
2018-07-15T01:12:47.565Z,1028.07358114
2018-07-15T01:13:00.141Z,1028.03971725
2018-07-15T01:13:12.602Z,1028.03971725
2018-07-15T01:13:25.032Z,1028.03971725
2018-07-15T01:13:37.424Z,1028.03971725
2018-07-15T01:13:49.833Z,1028.03971725
2018-07-15T01:14:02.271Z,1028.03971725
2018-07-15T01:14:14.668Z,1028.03971725
2018-07-15T01:14:27.122Z,1028.03971725
2018-07-15T01:14:39.525Z,1028.03971725
2018-07-15T01:14:51.915Z,1028.03971725
2018-07-15T01:15:04.339Z,1028.07358114
2018-07-15T01:15:16.751Z,1028.07358114
2018-07-15T01:15:29.175Z,1028.07358114
2018-07-15T01:15:41.579Z,1028.07358114
2018-07-15T01:15:54.001Z,1028.07358114
2018-07-15T01:16:06.406Z,1028.00585337
2018-07-15T01:16:18.803Z,1028.00585337
2018-07-15T01:16:31.206Z,1028.00585337
2018-07-15T01:16:43.716Z,1028.00585337
2018-07-15T01:16:56.133Z,1028.00585337
2018-07-15T01:17:08.540Z,1028.00585337
2018-07-15T01:17:20.949Z,1028.00585337
2018-07-15T01:17:33.347Z,1028.00585337
2018-07-15T01:17:45.759Z,1028.00585337
2018-07-15T01:17:58.204Z,1028.00585337
2018-07-15T01:18:10.648Z,1028.1413089
2018-07-15T01:18:23.094Z,1028.1413089
2018-07-15T01:18:35.489Z,1028.1413089
2018-07-15T01:18:47.872Z,1028.1413089
2018-07-15T01:19:00.403Z,1028.10744502
2018-07-15T01:19:12.808Z,1028.10744502
2018-07-15T01:19:25.246Z,1028.10744502
2018-07-15T01:19:37.648Z,1028.10744502
2018-07-15T01:19:50.046Z,1028.10744502
2018-07-15T01:20:02.437Z,1028.1413089
2018-07-15T01:20:14.834Z,1028.1413089
2018-07-15T01:20:27.242Z,1028.1413089
2018-07-15T01:20:39.841Z,1028.1413089
2018-07-15T01:20:52.263Z,1028.1413089
2018-07-15T01:21:04.657Z,1028.07358114
2018-07-15T01:21:17.056Z,1028.07358114
2018-07-15T01:21:29.532Z,1028.07358114
2018-07-15T01:21:41.939Z,1028.07358114
2018-07-15T01:21:54.340Z,1028.07358114
2018-07-15T01:22:06.738Z,1028.10744502
2018-07-15T01:22:19.147Z,1028.10744502
2018-07-15T01:22:31.558Z,1028.10744502
2018-07-15T01:22:43.973Z,1028.10744502
2018-07-15T01:22:56.376Z,1028.10744502
2018-07-15T01:23:08.822Z,1028.10744502
2018-07-15T01:23:21.226Z,1028.10744502
2018-07-15T01:23:33.655Z,1028.10744502
2018-07-15T01:23:46.074Z,1028.10744502
2018-07-15T01:23:58.503Z,1028.07358114
2018-07-15T01:24:10.897Z,1028.07358114
2018-07-15T01:24:23.302Z,1028.07358114
2018-07-15T01:24:35.746Z,1028.07358114
2018-07-15T01:24:48.138Z,1028.07358114
2018-07-15T01:25:00.528Z,1028.07358114
2018-07-15T01:25:12.939Z,1028.07358114
2018-07-15T01:25:25.320Z,1028.07358114
2018-07-15T01:25:37.749Z,1028.07358114
2018-07-15T01:25:50.216Z,1028.07358114
2018-07-15T01:26:02.614Z,1028.07358114
2018-07-15T01:26:15.027Z,1028.07358114
2018-07-15T01:26:27.502Z,1028.07358114
2018-07-15T01:26:39.958Z,1028.07358114
2018-07-15T01:26:52.354Z,1028.07358114
2018-07-15T01:27:04.738Z,1028.07358114
2018-07-15T01:27:17.184Z,1028.07358114
2018-07-15T01:27:29.601Z,1028.07358114
2018-07-15T01:27:42.007Z,1028.07358114
2018-07-15T01:27:54.388Z,1028.07358114
2018-07-15T01:28:06.838Z,1028.00585337
2018-07-15T01:28:19.255Z,1028.00585337
2018-07-15T01:28:31.663Z,1028.00585337
2018-07-15T01:28:44.048Z,1028.00585337
2018-07-15T01:28:56.447Z,1028.00585337
2018-07-15T01:29:08.873Z,1028.03971725
2018-07-15T01:29:21.277Z,1028.03971725
2018-07-15T01:29:33.671Z,1028.03971725
2018-07-15T01:29:46.090Z,1028.03971725
2018-07-15T01:29:58.509Z,1028.07358114
2018-07-15T01:30:10.965Z,1028.07358114
2018-07-15T01:30:23.380Z,1028.07358114
2018-07-15T01:30:35.818Z,1028.07358114
2018-07-15T01:30:48.243Z,1028.07358114
2018-07-15T01:31:00.650Z,1028.00585337
2018-07-15T01:31:13.059Z,1028.00585337
2018-07-15T01:31:25.647Z,1028.00585337
2018-07-15T01:31:38.122Z,1028.00585337
2018-07-15T01:31:50.602Z,1028.00585337
2018-07-15T01:32:03.161Z,1028.03971725
2018-07-15T01:32:15.609Z,1028.03971725
2018-07-15T01:32:28.007Z,1028.03971725
2018-07-15T01:32:40.415Z,1028.03971725
2018-07-15T01:32:52.846Z,1028.03971725
2018-07-15T01:33:05.247Z,1028.07358114
2018-07-15T01:33:17.663Z,1028.07358114
2018-07-15T01:33:30.077Z,1028.07358114
2018-07-15T01:33:42.517Z,1028.07358114
2018-07-15T01:33:54.919Z,1028.07358114
2018-07-15T01:34:07.336Z,1028.07358114
2018-07-15T01:34:19.733Z,1028.07358114
2018-07-15T01:34:32.136Z,1028.07358114
2018-07-15T01:34:44.565Z,1028.07358114
2018-07-15T01:34:56.986Z,1028.07358114
2018-07-15T01:35:09.417Z,1028.00585337
2018-07-15T01:35:21.827Z,1028.00585337
2018-07-15T01:35:34.219Z,1028.00585337
2018-07-15T01:35:46.622Z,1028.00585337
2018-07-15T01:35:59.017Z,1028.10744502
2018-07-15T01:36:11.413Z,1028.10744502
2018-07-15T01:36:23.844Z,1028.10744502
2018-07-15T01:36:36.279Z,1028.10744502
2018-07-15T01:36:48.693Z,1028.10744502
2018-07-15T01:37:01.126Z,1028.03971725
2018-07-15T01:37:13.532Z,1028.03971725
2018-07-15T01:37:25.949Z,1028.03971725
2018-07-15T01:37:38.355Z,1028.03971725
2018-07-15T01:37:50.767Z,1028.03971725
2018-07-15T01:38:03.161Z,1028.03971725
2018-07-15T01:38:15.566Z,1028.03971725
2018-07-15T01:38:28.057Z,1028.03971725
2018-07-15T01:38:40.454Z,1028.03971725
2018-07-15T01:38:52.863Z,1028.03971725
2018-07-15T01:39:05.288Z,1028.07358114
2018-07-15T01:39:17.740Z,1028.07358114
2018-07-15T01:39:30.157Z,1028.07358114
2018-07-15T01:39:42.680Z,1028.07358114
2018-07-15T01:39:55.098Z,1028.07358114
2018-07-15T01:40:07.501Z,1028.07358114
2018-07-15T01:40:19.907Z,1028.07358114
2018-07-15T01:40:32.312Z,1028.07358114
2018-07-15T01:40:44.718Z,1028.07358114
2018-07-15T01:40:57.107Z,1028.07358114
2018-07-15T01:41:09.504Z,1028.00585337
2018-07-15T01:41:21.889Z,1028.00585337
2018-07-15T01:41:34.294Z,1028.00585337
2018-07-15T01:41:46.765Z,1028.00585337
2018-07-15T01:41:59.179Z,1027.97198949
2018-07-15T01:42:11.604Z,1027.97198949
2018-07-15T01:42:24.016Z,1027.97198949
2018-07-15T01:42:36.442Z,1027.97198949
2018-07-15T01:42:48.859Z,1027.97198949
2018-07-15T01:43:01.289Z,1028.00585337
2018-07-15T01:43:13.711Z,1028.00585337
2018-07-15T01:43:26.155Z,1028.00585337
2018-07-15T01:43:38.542Z,1028.00585337
2018-07-15T01:43:50.931Z,1028.00585337
2018-07-15T01:44:03.349Z,1028.03971725
2018-07-15T01:44:15.755Z,1028.03971725
2018-07-15T01:44:28.162Z,1028.03971725
2018-07-15T01:44:40.640Z,1028.03971725
2018-07-15T01:44:53.188Z,1028.03971725
2018-07-15T01:45:05.608Z,1028.00585337
2018-07-15T01:45:18.039Z,1028.00585337
2018-07-15T01:45:30.442Z,1028.00585337
2018-07-15T01:45:42.846Z,1028.00585337
2018-07-15T01:45:55.241Z,1028.00585337
2018-07-15T01:46:07.662Z,1028.03971725
2018-07-15T01:46:20.077Z,1028.03971725
2018-07-15T01:46:32.493Z,1028.03971725
2018-07-15T01:46:44.885Z,1028.03971725
2018-07-15T01:46:57.285Z,1028.03971725
2018-07-15T01:47:09.699Z,1028.00585337
2018-07-15T01:47:22.115Z,1028.00585337
2018-07-15T01:47:34.542Z,1028.00585337
2018-07-15T01:47:46.944Z,1028.00585337
2018-07-15T01:47:59.351Z,1027.93812561
2018-07-15T01:48:11.747Z,1027.93812561
2018-07-15T01:48:24.158Z,1027.93812561
2018-07-15T01:48:36.559Z,1027.93812561
2018-07-15T01:48:49.114Z,1027.93812561
2018-07-15T01:49:01.541Z,1028.00585337
2018-07-15T01:49:13.982Z,1028.00585337
2018-07-15T01:49:26.418Z,1028.00585337
2018-07-15T01:49:38.835Z,1028.00585337
2018-07-15T01:49:51.224Z,1028.00585337
2018-07-15T01:50:03.679Z,1027.97198949
2018-07-15T01:50:16.098Z,1027.97198949
2018-07-15T01:50:28.568Z,1027.97198949
2018-07-15T01:50:41.030Z,1027.97198949
2018-07-15T01:50:53.427Z,1027.97198949
2018-07-15T01:51:05.878Z,1027.90426173
2018-07-15T01:51:18.297Z,1027.90426173
2018-07-15T01:51:30.720Z,1027.90426173
2018-07-15T01:51:43.130Z,1027.90426173
2018-07-15T01:51:55.557Z,1027.90426173
2018-07-15T01:52:08.004Z,1027.97198949
2018-07-15T01:52:20.417Z,1027.97198949
2018-07-15T01:52:32.822Z,1027.97198949
2018-07-15T01:52:45.290Z,1027.97198949
2018-07-15T01:52:57.716Z,1027.97198949
2018-07-15T01:53:10.602Z,1028.03971725
2018-07-15T01:53:23.007Z,1028.03971725
2018-07-15T01:53:35.413Z,1028.03971725
2018-07-15T01:53:47.806Z,1028.03971725
2018-07-15T01:54:00.199Z,1028.00585337
2018-07-15T01:54:12.607Z,1028.00585337
2018-07-15T01:54:25.040Z,1028.00585337
2018-07-15T01:54:37.500Z,1028.00585337
2018-07-15T01:54:49.906Z,1028.00585337
2018-07-15T01:55:02.316Z,1027.93812561
2018-07-15T01:55:14.765Z,1027.93812561
2018-07-15T01:55:27.197Z,1027.93812561
2018-07-15T01:55:39.628Z,1027.93812561
2018-07-15T01:55:52.030Z,1027.93812561
2018-07-15T01:56:04.437Z,1027.93812561
2018-07-15T01:56:16.845Z,1027.93812561
2018-07-15T01:56:29.249Z,1027.93812561
2018-07-15T01:56:41.639Z,1027.93812561
2018-07-15T01:56:54.034Z,1027.93812561
2018-07-15T01:57:06.423Z,1028.00585337
2018-07-15T01:57:18.826Z,1028.00585337
2018-07-15T01:57:31.222Z,1028.00585337
2018-07-15T01:57:43.642Z,1028.00585337
2018-07-15T01:57:56.062Z,1028.00585337
2018-07-15T01:58:08.491Z,1028.07358114
2018-07-15T01:58:20.912Z,1028.07358114
2018-07-15T01:58:33.338Z,1028.07358114
2018-07-15T01:58:45.774Z,1028.07358114
2018-07-15T01:58:58.196Z,1028.07358114
2018-07-15T01:59:10.644Z,1027.93812561
2018-07-15T01:59:23.091Z,1027.93812561
2018-07-15T01:59:35.506Z,1027.93812561
2018-07-15T01:59:47.900Z,1027.93812561
2018-07-15T02:00:00.365Z,1027.93812561
2018-07-15T02:00:13.082Z,1028.07358114
2018-07-15T02:00:25.495Z,1028.07358114
2018-07-15T02:00:37.954Z,1028.07358114
2018-07-15T02:00:50.377Z,1028.07358114
2018-07-15T02:01:02.802Z,1028.03971725
2018-07-15T02:01:15.214Z,1028.03971725
2018-07-15T02:01:27.650Z,1028.03971725
2018-07-15T02:01:40.077Z,1028.03971725
2018-07-15T02:01:52.566Z,1028.03971725
2018-07-15T02:02:05.032Z,1028.03971725
2018-07-15T02:02:17.458Z,1028.03971725
2018-07-15T02:02:29.883Z,1028.03971725
2018-07-15T02:02:42.281Z,1028.03971725
2018-07-15T02:02:54.684Z,1028.03971725
2018-07-15T02:03:07.097Z,1027.90426173
2018-07-15T02:03:19.556Z,1027.90426173
2018-07-15T02:03:31.954Z,1027.90426173
2018-07-15T02:03:44.377Z,1027.90426173
2018-07-15T02:03:56.784Z,1027.90426173
2018-07-15T02:04:09.172Z,1028.00585337
2018-07-15T02:04:21.566Z,1028.00585337
2018-07-15T02:04:33.977Z,1028.00585337
2018-07-15T02:04:46.382Z,1028.00585337
2018-07-15T02:04:58.785Z,1028.03971725
2018-07-15T02:05:11.350Z,1028.03971725
2018-07-15T02:05:23.790Z,1028.03971725
2018-07-15T02:05:36.181Z,1028.03971725
2018-07-15T02:05:48.598Z,1028.03971725
2018-07-15T02:06:01.015Z,1028.00585337
2018-07-15T02:06:13.447Z,1028.00585337
2018-07-15T02:06:25.869Z,1028.00585337
2018-07-15T02:06:38.275Z,1028.00585337
2018-07-15T02:06:50.682Z,1028.00585337
2018-07-15T02:07:03.081Z,1027.97198949
2018-07-15T02:07:15.484Z,1027.97198949
2018-07-15T02:07:27.870Z,1027.97198949